Gernika-Lumo, Spain
Current Conditions -  °F | °C
As of 1:30 PM on Monday 20 Oct 2014 (Local Time) from LEBB Reporting Station
Clear Clear  
Wind Chill: 84°   Ceiling: Unl
Heat Index: 84°   Visibility: 6mi
Dew Point: 55°   Wind: 0mph
Humidity: 37%   Direction: NA
Pressure: 30.09"   Gusts: NA
Location:  43.32°N, 2.68°W
Report Text: LEBB 201130Z 00000KT CAVOK 29/13 Q1019 NOSIG
Loading
Personal Weather Stations






























Interactive Weather Map
Tropical Storm Tracking
New forecast layout! Learn more

10-Day Weather Forecast

Advertisements
Track Severe Weather on mobile